sensor_id;sensor_type;location;lat;lon;timestamp;P1;durP1;ratioP1;P2;durP2;ratioP2
37527;SDS011;23372;52.050;4.810;2022-12-29T00:01:22;8.47;;;4.17;;
37527;SDS011;23372;52.050;4.810;2022-12-29T00:03:47;3.80;;;2.50;;
37527;SDS011;23372;52.050;4.810;2022-12-29T00:06:13;3.27;;;1.97;;
37527;SDS011;23372;52.050;4.810;2022-12-29T00:08:39;3.97;;;1.80;;
37527;SDS011;23372;52.050;4.810;2022-12-29T00:11:15;3.53;;;1.70;;
37527;SDS011;23372;52.050;4.810;2022-12-29T00:13:44;2.83;;;1.93;;
37527;SDS011;23372;52.050;4.810;2022-12-29T00:16:29;3.37;;;1.83;;
37527;SDS011;23372;52.050;4.810;2022-12-29T00:18:56;3.80;;;1.73;;
37527;SDS011;23372;52.050;4.810;2022-12-29T00:21:22;3.43;;;2.13;;
37527;SDS011;23372;52.050;4.810;2022-12-29T00:24:17;3.87;;;1.87;;
37527;SDS011;23372;52.050;4.810;2022-12-29T00:26:58;3.17;;;1.90;;
37527;SDS011;23372;52.050;4.810;2022-12-29T00:29:53;3.13;;;1.80;;
37527;SDS011;23372;52.050;4.810;2022-12-29T00:32:37;3.13;;;1.83;;
37527;SDS011;23372;52.050;4.810;2022-12-29T00:37:54;4.20;;;2.10;;
37527;SDS011;23372;52.050;4.810;2022-12-29T00:40:40;4.97;;;2.10;;
37527;SDS011;23372;52.050;4.810;2022-12-29T00:43:24;5.67;;;1.93;;
37527;SDS011;23372;52.050;4.810;2022-12-29T00:46:08;2.07;;;1.73;;
37527;SDS011;23372;52.050;4.810;2022-12-29T00:48:34;4.67;;;1.80;;
37527;SDS011;23372;52.050;4.810;2022-12-29T00:51:18;2.60;;;1.67;;
37527;SDS011;23372;52.050;4.810;2022-12-29T00:53:44;5.37;;;2.17;;
37527;SDS011;23372;52.050;4.810;2022-12-29T00:56:09;4.40;;;1.77;;
37527;SDS011;23372;52.050;4.810;2022-12-29T00:58:35;4.67;;;1.90;;
37527;SDS011;23372;52.050;4.810;2022-12-29T01:01:04;3.00;;;1.60;;
37527;SDS011;23372;52.050;4.810;2022-12-29T01:03:30;5.83;;;1.90;;
37527;SDS011;23372;52.050;4.810;2022-12-29T01:05:56;2.27;;;1.40;;
37527;SDS011;23372;52.050;4.810;2022-12-29T01:08:26;3.47;;;1.73;;
37527;SDS011;23372;52.050;4.810;2022-12-29T01:11:02;3.20;;;1.50;;
37527;SDS011;23372;52.050;4.810;2022-12-29T01:13:33;1.77;;;1.20;;
37527;SDS011;23372;52.050;4.810;2022-12-29T01:15:59;2.63;;;1.73;;
37527;SDS011;23372;52.050;4.810;2022-12-29T01:18:25;2.77;;;2.10;;
37527;SDS011;23372;52.050;4.810;2022-12-29T01:20:58;3.50;;;1.60;;
37527;SDS011;23372;52.050;4.810;2022-12-29T01:23:33;2.20;;;1.53;;
37527;SDS011;23372;52.050;4.810;2022-12-29T01:26:07;3.10;;;1.63;;
37527;SDS011;23372;52.050;4.810;2022-12-29T01:28:34;3.90;;;1.87;;
37527;SDS011;23372;52.050;4.810;2022-12-29T01:31:00;3.10;;;1.60;;
37527;SDS011;23372;52.050;4.810;2022-12-29T01:33:26;4.33;;;1.63;;
37527;SDS011;23372;52.050;4.810;2022-12-29T01:35:51;3.43;;;1.87;;
37527;SDS011;23372;52.050;4.810;2022-12-29T01:38:17;5.33;;;1.80;;
37527;SDS011;23372;52.050;4.810;2022-12-29T01:40:43;4.60;;;2.20;;
37527;SDS011;23372;52.050;4.810;2022-12-29T01:43:10;4.13;;;1.93;;
37527;SDS011;23372;52.050;4.810;2022-12-29T01:45:39;2.30;;;1.90;;
37527;SDS011;23372;52.050;4.810;2022-12-29T01:48:10;3.93;;;2.13;;
37527;SDS011;23372;52.050;4.810;2022-12-29T01:50:39;2.40;;;1.77;;
37527;SDS011;23372;52.050;4.810;2022-12-29T01:53:12;3.93;;;1.80;;
37527;SDS011;23372;52.050;4.810;2022-12-29T01:55:48;3.73;;;1.60;;
37527;SDS011;23372;52.050;4.810;2022-12-29T01:58:19;1.77;;;1.50;;
37527;SDS011;23372;52.050;4.810;2022-12-29T02:00:47;4.80;;;1.60;;
37527;SDS011;23372;52.050;4.810;2022-12-29T02:03:13;4.03;;;1.60;;
37527;SDS011;23372;52.050;4.810;2022-12-29T02:05:52;2.53;;;1.50;;
37527;SDS011;23372;52.050;4.810;2022-12-29T02:08:47;4.10;;;1.30;;
37527;SDS011;23372;52.050;4.810;2022-12-29T02:11:14;2.80;;;1.40;;
37527;SDS011;23372;52.050;4.810;2022-12-29T02:13:41;4.03;;;1.53;;
37527;SDS011;23372;52.050;4.810;2022-12-29T02:18:49;2.50;;;1.00;;
37527;SDS011;23372;52.050;4.810;2022-12-29T02:21:22;4.60;;;1.20;;
37527;SDS011;23372;52.050;4.810;2022-12-29T02:35:30;2.20;;;1.07;;
37527;SDS011;23372;52.050;4.810;2022-12-29T02:40:33;5.83;;;2.13;;
37527;SDS011;23372;52.050;4.810;2022-12-29T02:46:17;6.60;;;0.97;;
37527;SDS011;23372;52.050;4.810;2022-12-29T02:52:00;4.13;;;0.70;;
37527;SDS011;23372;52.050;4.810;2022-12-29T02:54:32;6.93;;;0.93;;
37527;SDS011;23372;52.050;4.810;2022-12-29T02:57:10;6.50;;;1.10;;
37527;SDS011;23372;52.050;4.810;2022-12-29T02:59:45;4.57;;;1.53;;
37527;SDS011;23372;52.050;4.810;2022-12-29T03:05:21;7.70;;;1.17;;
37527;SDS011;23372;52.050;4.810;2022-12-29T03:08:15;6.47;;;1.30;;
37527;SDS011;23372;52.050;4.810;2022-12-29T03:10:52;9.47;;;1.77;;
37527;SDS011;23372;52.050;4.810;2022-12-29T03:13:39;8.53;;;2.33;;
37527;SDS011;23372;52.050;4.810;2022-12-29T03:19:21;4.40;;;0.90;;
37527;SDS011;23372;52.050;4.810;2022-12-29T03:22:03;8.77;;;1.20;;
37527;SDS011;23372;52.050;4.810;2022-12-29T03:24:52;6.73;;;1.20;;
37527;SDS011;23372;52.050;4.810;2022-12-29T03:27:31;6.03;;;1.27;;
37527;SDS011;23372;52.050;4.810;2022-12-29T03:30:02;6.07;;;1.77;;
37527;SDS011;23372;52.050;4.810;2022-12-29T03:32:32;6.00;;;1.07;;
37527;SDS011;23372;52.050;4.810;2022-12-29T03:35:01;8.87;;;1.83;;
37527;SDS011;23372;52.050;4.810;2022-12-29T03:37:30;5.13;;;1.10;;
37527;SDS011;23372;52.050;4.810;2022-12-29T03:40:01;5.23;;;1.03;;
37527;SDS011;23372;52.050;4.810;2022-12-29T03:42:29;6.40;;;1.20;;
37527;SDS011;23372;52.050;4.810;2022-12-29T03:44:58;4.30;;;1.23;;
37527;SDS011;23372;52.050;4.810;2022-12-29T03:47:24;4.70;;;1.33;;
37527;SDS011;23372;52.050;4.810;2022-12-29T03:49:50;4.83;;;0.90;;
37527;SDS011;23372;52.050;4.810;2022-12-29T03:52:16;3.13;;;0.70;;
37527;SDS011;23372;52.050;4.810;2022-12-29T03:54:42;3.93;;;0.90;;
37527;SDS011;23372;52.050;4.810;2022-12-29T03:57:09;4.03;;;1.10;;
37527;SDS011;23372;52.050;4.810;2022-12-29T03:59:36;8.23;;;1.40;;
37527;SDS011;23372;52.050;4.810;2022-12-29T04:02:01;6.57;;;1.20;;
37527;SDS011;23372;52.050;4.810;2022-12-29T04:04:27;4.80;;;0.90;;
37527;SDS011;23372;52.050;4.810;2022-12-29T04:06:53;6.47;;;1.00;;
37527;SDS011;23372;52.050;4.810;2022-12-29T04:09:18;6.17;;;1.20;;
37527;SDS011;23372;52.050;4.810;2022-12-29T04:11:44;6.07;;;1.17;;
37527;SDS011;23372;52.050;4.810;2022-12-29T04:14:09;8.00;;;1.40;;
37527;SDS011;23372;52.050;4.810;2022-12-29T04:16:35;8.73;;;1.43;;
37527;SDS011;23372;52.050;4.810;2022-12-29T04:19:03;6.00;;;1.10;;
37527;SDS011;23372;52.050;4.810;2022-12-29T04:21:29;8.83;;;0.93;;
37527;SDS011;23372;52.050;4.810;2022-12-29T04:23:55;6.83;;;1.27;;
37527;SDS011;23372;52.050;4.810;2022-12-29T04:26:20;4.97;;;1.00;;
37527;SDS011;23372;52.050;4.810;2022-12-29T04:28:46;9.07;;;1.60;;
37527;SDS011;23372;52.050;4.810;2022-12-29T04:31:11;6.60;;;1.10;;
37527;SDS011;23372;52.050;4.810;2022-12-29T04:33:37;8.50;;;1.60;;
37527;SDS011;23372;52.050;4.810;2022-12-29T04:36:03;12.37;;;1.37;;
37527;SDS011;23372;52.050;4.810;2022-12-29T04:38:28;10.93;;;1.40;;
37527;SDS011;23372;52.050;4.810;2022-12-29T04:40:55;5.60;;;1.10;;
37527;SDS011;23372;52.050;4.810;2022-12-29T04:43:23;7.27;;;0.97;;
37527;SDS011;23372;52.050;4.810;2022-12-29T04:45:49;8.67;;;1.63;;
37527;SDS011;23372;52.050;4.810;2022-12-29T04:48:14;10.10;;;2.00;;
37527;SDS011;23372;52.050;4.810;2022-12-29T04:50:40;10.57;;;1.60;;
37527;SDS011;23372;52.050;4.810;2022-12-29T04:53:07;6.97;;;1.73;;
37527;SDS011;23372;52.050;4.810;2022-12-29T04:55:33;8.70;;;2.17;;
37527;SDS011;23372;52.050;4.810;2022-12-29T04:57:58;7.33;;;1.30;;
37527;SDS011;23372;52.050;4.810;2022-12-29T05:00:24;10.47;;;1.43;;
37527;SDS011;23372;52.050;4.810;2022-12-29T05:02:50;11.17;;;1.37;;
37527;SDS011;23372;52.050;4.810;2022-12-29T05:05:16;12.10;;;1.80;;
37527;SDS011;23372;52.050;4.810;2022-12-29T05:07:41;11.20;;;1.60;;
37527;SDS011;23372;52.050;4.810;2022-12-29T05:10:07;7.97;;;1.63;;
37527;SDS011;23372;52.050;4.810;2022-12-29T05:12:34;11.20;;;2.00;;
37527;SDS011;23372;52.050;4.810;2022-12-29T05:15:00;11.37;;;1.60;;
37527;SDS011;23372;52.050;4.810;2022-12-29T05:17:27;10.37;;;1.87;;
37527;SDS011;23372;52.050;4.810;2022-12-29T05:19:53;14.60;;;2.03;;
37527;SDS011;23372;52.050;4.810;2022-12-29T05:22:19;12.00;;;2.10;;
37527;SDS011;23372;52.050;4.810;2022-12-29T05:24:44;12.27;;;2.03;;
37527;SDS011;23372;52.050;4.810;2022-12-29T05:27:10;14.17;;;2.10;;
37527;SDS011;23372;52.050;4.810;2022-12-29T05:29:36;10.17;;;1.67;;
37527;SDS011;23372;52.050;4.810;2022-12-29T05:32:01;10.67;;;1.70;;
37527;SDS011;23372;52.050;4.810;2022-12-29T05:34:27;11.10;;;1.77;;
37527;SDS011;23372;52.050;4.810;2022-12-29T05:36:52;14.97;;;2.03;;
37527;SDS011;23372;52.050;4.810;2022-12-29T05:39:18;16.73;;;1.90;;
37527;SDS011;23372;52.050;4.810;2022-12-29T05:41:43;10.50;;;1.83;;
37527;SDS011;23372;52.050;4.810;2022-12-29T05:44:10;14.60;;;2.13;;
37527;SDS011;23372;52.050;4.810;2022-12-29T05:46:35;12.40;;;2.47;;
37527;SDS011;23372;52.050;4.810;2022-12-29T05:49:01;13.20;;;2.20;;
37527;SDS011;23372;52.050;4.810;2022-12-29T05:51:27;11.03;;;2.00;;
37527;SDS011;23372;52.050;4.810;2022-12-29T05:53:52;15.97;;;2.50;;
37527;SDS011;23372;52.050;4.810;2022-12-29T05:56:18;9.57;;;2.13;;
37527;SDS011;23372;52.050;4.810;2022-12-29T05:58:43;9.80;;;2.80;;
37527;SDS011;23372;52.050;4.810;2022-12-29T06:01:09;15.30;;;2.60;;
37527;SDS011;23372;52.050;4.810;2022-12-29T06:03:34;15.23;;;2.47;;
37527;SDS011;23372;52.050;4.810;2022-12-29T06:06:00;15.97;;;1.77;;
37527;SDS011;23372;52.050;4.810;2022-12-29T06:08:25;15.73;;;2.07;;
37527;SDS011;23372;52.050;4.810;2022-12-29T06:10:51;19.33;;;2.40;;
37527;SDS011;23372;52.050;4.810;2022-12-29T06:13:17;18.27;;;2.63;;
37527;SDS011;23372;52.050;4.810;2022-12-29T06:15:42;8.80;;;2.23;;
37527;SDS011;23372;52.050;4.810;2022-12-29T06:18:08;15.20;;;2.27;;
37527;SDS011;23372;52.050;4.810;2022-12-29T06:20:33;17.50;;;1.90;;
37527;SDS011;23372;52.050;4.810;2022-12-29T06:22:59;13.13;;;2.30;;
37527;SDS011;23372;52.050;4.810;2022-12-29T06:25:25;8.80;;;1.90;;
37527;SDS011;23372;52.050;4.810;2022-12-29T06:27:50;12.90;;;2.60;;
37527;SDS011;23372;52.050;4.810;2022-12-29T06:30:16;13.97;;;2.17;;
37527;SDS011;23372;52.050;4.810;2022-12-29T06:32:41;11.20;;;2.00;;
37527;SDS011;23372;52.050;4.810;2022-12-29T06:35:07;10.23;;;1.97;;
37527;SDS011;23372;52.050;4.810;2022-12-29T06:37:33;10.60;;;2.03;;
37527;SDS011;23372;52.050;4.810;2022-12-29T06:39:59;15.40;;;2.07;;
37527;SDS011;23372;52.050;4.810;2022-12-29T06:42:24;16.30;;;2.47;;
37527;SDS011;23372;52.050;4.810;2022-12-29T06:44:50;12.80;;;2.23;;
37527;SDS011;23372;52.050;4.810;2022-12-29T06:47:16;14.20;;;2.67;;
37527;SDS011;23372;52.050;4.810;2022-12-29T06:49:41;14.20;;;2.27;;
37527;SDS011;23372;52.050;4.810;2022-12-29T06:52:07;8.00;;;2.30;;
37527;SDS011;23372;52.050;4.810;2022-12-29T06:54:32;10.73;;;2.17;;
37527;SDS011;23372;52.050;4.810;2022-12-29T06:56:58;15.57;;;2.10;;
37527;SDS011;23372;52.050;4.810;2022-12-29T06:59:24;13.23;;;2.23;;
37527;SDS011;23372;52.050;4.810;2022-12-29T07:01:50;8.93;;;1.40;;
37527;SDS011;23372;52.050;4.810;2022-12-29T07:04:16;13.10;;;1.83;;
37527;SDS011;23372;52.050;4.810;2022-12-29T07:06:41;9.83;;;1.53;;
37527;SDS011;23372;52.050;4.810;2022-12-29T07:09:07;14.40;;;1.90;;
37527;SDS011;23372;52.050;4.810;2022-12-29T07:11:33;13.00;;;3.07;;
37527;SDS011;23372;52.050;4.810;2022-12-29T07:13:59;12.70;;;1.70;;
37527;SDS011;23372;52.050;4.810;2022-12-29T07:16:25;9.10;;;1.73;;
37527;SDS011;23372;52.050;4.810;2022-12-29T07:18:51;12.37;;;2.17;;
37527;SDS011;23372;52.050;4.810;2022-12-29T07:21:17;9.70;;;2.10;;
37527;SDS011;23372;52.050;4.810;2022-12-29T07:23:43;10.20;;;1.70;;
37527;SDS011;23372;52.050;4.810;2022-12-29T07:26:09;10.07;;;1.87;;
37527;SDS011;23372;52.050;4.810;2022-12-29T07:28:37;9.33;;;2.23;;
37527;SDS011;23372;52.050;4.810;2022-12-29T07:31:09;12.80;;;1.70;;
37527;SDS011;23372;52.050;4.810;2022-12-29T07:33:42;11.13;;;1.77;;
37527;SDS011;23372;52.050;4.810;2022-12-29T07:36:08;9.30;;;2.13;;
37527;SDS011;23372;52.050;4.810;2022-12-29T07:38:34;13.87;;;2.63;;
37527;SDS011;23372;52.050;4.810;2022-12-29T07:41:00;15.10;;;2.07;;
37527;SDS011;23372;52.050;4.810;2022-12-29T07:43:25;17.33;;;2.57;;
37527;SDS011;23372;52.050;4.810;2022-12-29T07:45:51;11.30;;;2.53;;
37527;SDS011;23372;52.050;4.810;2022-12-29T07:48:16;13.50;;;2.47;;
37527;SDS011;23372;52.050;4.810;2022-12-29T07:50:42;15.20;;;2.20;;
37527;SDS011;23372;52.050;4.810;2022-12-29T07:53:07;7.27;;;1.73;;
37527;SDS011;23372;52.050;4.810;2022-12-29T07:55:33;14.13;;;2.07;;
37527;SDS011;23372;52.050;4.810;2022-12-29T07:57:59;11.27;;;2.17;;
37527;SDS011;23372;52.050;4.810;2022-12-29T08:00:24;13.47;;;1.90;;
37527;SDS011;23372;52.050;4.810;2022-12-29T08:02:50;10.17;;;2.20;;
37527;SDS011;23372;52.050;4.810;2022-12-29T08:05:16;11.17;;;2.53;;
37527;SDS011;23372;52.050;4.810;2022-12-29T08:07:42;16.03;;;2.63;;
37527;SDS011;23372;52.050;4.810;2022-12-29T08:10:09;12.53;;;2.70;;
37527;SDS011;23372;52.050;4.810;2022-12-29T08:12:35;15.80;;;2.87;;
37527;SDS011;23372;52.050;4.810;2022-12-29T08:15:02;17.70;;;1.97;;
37527;SDS011;23372;52.050;4.810;2022-12-29T08:17:28;15.27;;;2.30;;
37527;SDS011;23372;52.050;4.810;2022-12-29T08:19:53;15.40;;;2.30;;
37527;SDS011;23372;52.050;4.810;2022-12-29T08:22:19;12.13;;;1.93;;
37527;SDS011;23372;52.050;4.810;2022-12-29T08:24:44;10.50;;;2.03;;
37527;SDS011;23372;52.050;4.810;2022-12-29T08:27:10;12.63;;;1.93;;
37527;SDS011;23372;52.050;4.810;2022-12-29T08:29:35;17.43;;;2.53;;
37527;SDS011;23372;52.050;4.810;2022-12-29T08:32:01;17.93;;;3.10;;
37527;SDS011;23372;52.050;4.810;2022-12-29T08:34:27;13.80;;;3.17;;
37527;SDS011;23372;52.050;4.810;2022-12-29T08:36:52;14.37;;;2.83;;
37527;SDS011;23372;52.050;4.810;2022-12-29T08:39:18;12.07;;;2.33;;
37527;SDS011;23372;52.050;4.810;2022-12-29T08:41:43;12.90;;;2.30;;
37527;SDS011;23372;52.050;4.810;2022-12-29T08:44:09;21.60;;;3.13;;
37527;SDS011;23372;52.050;4.810;2022-12-29T08:46:34;15.87;;;2.00;;
37527;SDS011;23372;52.050;4.810;2022-12-29T08:49:00;15.57;;;2.07;;
37527;SDS011;23372;52.050;4.810;2022-12-29T08:51:25;14.90;;;2.33;;
37527;SDS011;23372;52.050;4.810;2022-12-29T08:53:51;19.13;;;2.37;;
37527;SDS011;23372;52.050;4.810;2022-12-29T08:56:17;16.20;;;2.30;;
37527;SDS011;23372;52.050;4.810;2022-12-29T08:58:43;20.23;;;1.67;;
37527;SDS011;23372;52.050;4.810;2022-12-29T09:01:09;14.13;;;1.87;;
37527;SDS011;23372;52.050;4.810;2022-12-29T09:03:35;15.47;;;2.77;;
37527;SDS011;23372;52.050;4.810;2022-12-29T09:06:00;16.87;;;3.23;;
37527;SDS011;23372;52.050;4.810;2022-12-29T09:08:26;19.93;;;2.83;;
37527;SDS011;23372;52.050;4.810;2022-12-29T09:10:51;15.87;;;2.87;;
37527;SDS011;23372;52.050;4.810;2022-12-29T09:13:17;15.83;;;2.33;;
37527;SDS011;23372;52.050;4.810;2022-12-29T09:15:43;20.63;;;3.23;;
37527;SDS011;23372;52.050;4.810;2022-12-29T09:18:09;17.67;;;2.83;;
37527;SDS011;23372;52.050;4.810;2022-12-29T09:20:35;11.10;;;2.83;;
37527;SDS011;23372;52.050;4.810;2022-12-29T09:23:01;14.50;;;2.43;;
37527;SDS011;23372;52.050;4.810;2022-12-29T09:25:28;10.70;;;2.37;;
37527;SDS011;23372;52.050;4.810;2022-12-29T09:27:54;13.60;;;2.80;;
37527;SDS011;23372;52.050;4.810;2022-12-29T09:30:20;14.13;;;2.53;;
37527;SDS011;23372;52.050;4.810;2022-12-29T09:32:47;11.43;;;2.50;;
37527;SDS011;23372;52.050;4.810;2022-12-29T09:35:14;14.10;;;2.93;;
37527;SDS011;23372;52.050;4.810;2022-12-29T09:37:40;8.80;;;1.80;;
37527;SDS011;23372;52.050;4.810;2022-12-29T09:40:06;12.10;;;2.27;;
37527;SDS011;23372;52.050;4.810;2022-12-29T09:43:00;19.93;;;4.50;;
37527;SDS011;23372;52.050;4.810;2022-12-29T09:48:17;12.03;;;2.43;;
37527;SDS011;23372;52.050;4.810;2022-12-29T09:50:50;12.47;;;2.33;;
37527;SDS011;23372;52.050;4.810;2022-12-29T09:53:21;11.47;;;2.30;;
37527;SDS011;23372;52.050;4.810;2022-12-29T09:55:54;14.47;;;2.30;;
37527;SDS011;23372;52.050;4.810;2022-12-29T10:03:46;20.13;;;2.57;;
37527;SDS011;23372;52.050;4.810;2022-12-29T10:06:15;14.97;;;2.40;;
37527;SDS011;23372;52.050;4.810;2022-12-29T10:08:58;16.47;;;2.40;;
37527;SDS011;23372;52.050;4.810;2022-12-29T10:16:40;18.60;;;4.23;;
37527;SDS011;23372;52.050;4.810;2022-12-29T10:19:29;14.90;;;4.30;;
37527;SDS011;23372;52.050;4.810;2022-12-29T10:25:11;14.60;;;3.13;;
37527;SDS011;23372;52.050;4.810;2022-12-29T10:27:41;22.87;;;4.10;;
37527;SDS011;23372;52.050;4.810;2022-12-29T10:30:11;11.83;;;4.60;;
37527;SDS011;23372;52.050;4.810;2022-12-29T10:32:39;21.73;;;3.87;;
37527;SDS011;23372;52.050;4.810;2022-12-29T10:40:38;22.80;;;4.80;;
37527;SDS011;23372;52.050;4.810;2022-12-29T10:43:07;18.33;;;3.63;;
37527;SDS011;23372;52.050;4.810;2022-12-29T10:45:50;18.93;;;4.90;;
37527;SDS011;23372;52.050;4.810;2022-12-29T10:48:22;24.97;;;4.63;;
37527;SDS011;23372;52.050;4.810;2022-12-29T10:50:56;23.00;;;5.17;;
37527;SDS011;23372;52.050;4.810;2022-12-29T10:53:24;24.37;;;5.20;;
37527;SDS011;23372;52.050;4.810;2022-12-29T10:56:05;30.57;;;4.43;;
37527;SDS011;23372;52.050;4.810;2022-12-29T10:58:40;20.67;;;3.60;;
37527;SDS011;23372;52.050;4.810;2022-12-29T11:01:08;22.37;;;4.03;;
37527;SDS011;23372;52.050;4.810;2022-12-29T11:06:25;20.83;;;3.67;;
37527;SDS011;23372;52.050;4.810;2022-12-29T11:09:12;28.50;;;4.10;;
37527;SDS011;23372;52.050;4.810;2022-12-29T11:11:41;22.10;;;4.50;;
37527;SDS011;23372;52.050;4.810;2022-12-29T11:14:12;20.77;;;3.50;;
37527;SDS011;23372;52.050;4.810;2022-12-29T11:16:44;23.30;;;4.67;;
37527;SDS011;23372;52.050;4.810;2022-12-29T11:19:23;22.47;;;3.83;;
37527;SDS011;23372;52.050;4.810;2022-12-29T11:21:53;18.53;;;4.20;;
37527;SDS011;23372;52.050;4.810;2022-12-29T11:24:26;23.83;;;4.90;;
37527;SDS011;23372;52.050;4.810;2022-12-29T11:27:15;27.93;;;5.33;;
37527;SDS011;23372;52.050;4.810;2022-12-29T11:29:42;21.13;;;3.97;;
37527;SDS011;23372;52.050;4.810;2022-12-29T11:34:45;21.73;;;4.00;;
37527;SDS011;23372;52.050;4.810;2022-12-29T11:37:32;33.17;;;6.00;;
37527;SDS011;23372;52.050;4.810;2022-12-29T11:40:15;29.80;;;4.27;;
37527;SDS011;23372;52.050;4.810;2022-12-29T11:42:47;23.67;;;3.73;;
37527;SDS011;23372;52.050;4.810;2022-12-29T11:45:20;28.03;;;5.73;;
37527;SDS011;23372;52.050;4.810;2022-12-29T11:47:50;25.33;;;3.63;;
37527;SDS011;23372;52.050;4.810;2022-12-29T11:50:21;23.30;;;3.40;;
37527;SDS011;23372;52.050;4.810;2022-12-29T11:52:50;19.63;;;3.57;;
37527;SDS011;23372;52.050;4.810;2022-12-29T11:55:30;27.17;;;3.17;;
37527;SDS011;23372;52.050;4.810;2022-12-29T11:57:58;15.63;;;2.93;;
37527;SDS011;23372;52.050;4.810;2022-12-29T12:00:27;24.50;;;4.00;;
37527;SDS011;23372;52.050;4.810;2022-12-29T12:03:07;19.13;;;3.70;;
37527;SDS011;23372;52.050;4.810;2022-12-29T12:05:51;19.53;;;3.20;;
37527;SDS011;23372;52.050;4.810;2022-12-29T12:11:05;17.83;;;3.10;;
37527;SDS011;23372;52.050;4.810;2022-12-29T12:17:06;20.47;;;3.53;;
37527;SDS011;23372;52.050;4.810;2022-12-29T12:19:42;20.77;;;3.53;;
37527;SDS011;23372;52.050;4.810;2022-12-29T12:25:17;17.73;;;3.20;;
37527;SDS011;23372;52.050;4.810;2022-12-29T12:27:50;18.67;;;3.03;;
37527;SDS011;23372;52.050;4.810;2022-12-29T12:30:22;17.83;;;2.87;;
37527;SDS011;23372;52.050;4.810;2022-12-29T12:32:54;17.53;;;3.30;;
37527;SDS011;23372;52.050;4.810;2022-12-29T12:35:38;16.30;;;2.93;;
37527;SDS011;23372;52.050;4.810;2022-12-29T12:55:28;12.77;;;2.67;;
37527;SDS011;23372;52.050;4.810;2022-12-29T13:01:31;17.10;;;3.13;;
37527;SDS011;23372;52.050;4.810;2022-12-29T13:06:58;14.00;;;1.80;;
37527;SDS011;23372;52.050;4.810;2022-12-29T13:10:12;14.80;;;3.03;;
37527;SDS011;23372;52.050;4.810;2022-12-29T13:23:44;12.80;;;2.40;;
37527;SDS011;23372;52.050;4.810;2022-12-29T13:26:24;9.17;;;2.83;;
37527;SDS011;23372;52.050;4.810;2022-12-29T13:31:45;14.47;;;2.63;;
37527;SDS011;23372;52.050;4.810;2022-12-29T13:34:21;20.63;;;3.47;;
37527;SDS011;23372;52.050;4.810;2022-12-29T13:37:13;11.97;;;3.10;;
37527;SDS011;23372;52.050;4.810;2022-12-29T13:39:47;13.40;;;2.87;;
37527;SDS011;23372;52.050;4.810;2022-12-29T13:42:16;14.63;;;3.00;;
37527;SDS011;23372;52.050;4.810;2022-12-29T13:45:06;22.33;;;4.27;;
37527;SDS011;23372;52.050;4.810;2022-12-29T13:50:39;18.63;;;2.97;;
37527;SDS011;23372;52.050;4.810;2022-12-29T13:58:47;13.63;;;2.87;;
37527;SDS011;23372;52.050;4.810;2022-12-29T14:01:34;10.27;;;2.13;;
37527;SDS011;23372;52.050;4.810;2022-12-29T14:04:16;9.23;;;2.40;;
37527;SDS011;23372;52.050;4.810;2022-12-29T14:12:10;3.90;;;1.23;;
37527;SDS011;23372;52.050;4.810;2022-12-29T14:14:52;4.97;;;0.97;;
37527;SDS011;23372;52.050;4.810;2022-12-29T14:17:19;5.77;;;0.97;;
37527;SDS011;23372;52.050;4.810;2022-12-29T14:19:45;7.23;;;1.40;;
37527;SDS011;23372;52.050;4.810;2022-12-29T14:22:22;7.03;;;1.73;;
37527;SDS011;23372;52.050;4.810;2022-12-29T14:24:49;9.03;;;1.70;;
37527;SDS011;23372;52.050;4.810;2022-12-29T14:34:50;7.00;;;2.93;;
37527;SDS011;23372;52.050;4.810;2022-12-29T14:42:45;9.47;;;2.73;;
37527;SDS011;23372;52.050;4.810;2022-12-29T14:47:41;8.37;;;2.13;;
37527;SDS011;23372;52.050;4.810;2022-12-29T14:57:43;9.33;;;2.07;;
37527;SDS011;23372;52.050;4.810;2022-12-29T15:02:42;10.50;;;1.97;;
37527;SDS011;23372;52.050;4.810;2022-12-29T15:05:28;12.87;;;3.10;;
37527;SDS011;23372;52.050;4.810;2022-12-29T15:07:59;8.40;;;2.30;;
37527;SDS011;23372;52.050;4.810;2022-12-29T15:10:26;13.27;;;2.37;;
37527;SDS011;23372;52.050;4.810;2022-12-29T15:13:00;13.03;;;2.50;;
37527;SDS011;23372;52.050;4.810;2022-12-29T15:15:35;12.53;;;2.07;;
37527;SDS011;23372;52.050;4.810;2022-12-29T15:18:21;13.43;;;2.27;;
37527;SDS011;23372;52.050;4.810;2022-12-29T15:20:53;8.47;;;2.20;;
37527;SDS011;23372;52.050;4.810;2022-12-29T15:23:22;9.87;;;2.67;;
37527;SDS011;23372;52.050;4.810;2022-12-29T15:25:50;10.87;;;2.17;;
37527;SDS011;23372;52.050;4.810;2022-12-29T15:28:22;10.80;;;2.20;;
37527;SDS011;23372;52.050;4.810;2022-12-29T15:30:56;12.60;;;2.13;;
37527;SDS011;23372;52.050;4.810;2022-12-29T15:33:27;21.00;;;3.13;;
37527;SDS011;23372;52.050;4.810;2022-12-29T15:35:54;12.40;;;2.17;;
37527;SDS011;23372;52.050;4.810;2022-12-29T15:38:21;14.43;;;3.00;;
37527;SDS011;23372;52.050;4.810;2022-12-29T15:40:59;13.13;;;2.47;;
37527;SDS011;23372;52.050;4.810;2022-12-29T15:46:10;17.93;;;2.93;;
37527;SDS011;23372;52.050;4.810;2022-12-29T15:48:37;15.03;;;2.90;;
37527;SDS011;23372;52.050;4.810;2022-12-29T15:51:08;11.03;;;2.37;;
37527;SDS011;23372;52.050;4.810;2022-12-29T15:53:41;12.20;;;2.40;;
37527;SDS011;23372;52.050;4.810;2022-12-29T15:56:07;11.32;;;3.05;;
37527;SDS011;23372;52.050;4.810;2022-12-29T15:58:53;15.87;;;3.13;;
37527;SDS011;23372;52.050;4.810;2022-12-29T16:01:20;14.77;;;2.70;;
37527;SDS011;23372;52.050;4.810;2022-12-29T16:03:58;7.73;;;1.93;;
37527;SDS011;23372;52.050;4.810;2022-12-29T16:06:33;15.13;;;2.53;;
37527;SDS011;23372;52.050;4.810;2022-12-29T16:09:02;8.00;;;2.10;;
37527;SDS011;23372;52.050;4.810;2022-12-29T16:11:31;15.30;;;2.27;;
37527;SDS011;23372;52.050;4.810;2022-12-29T16:14:05;11.03;;;1.87;;
37527;SDS011;23372;52.050;4.810;2022-12-29T16:16:39;7.17;;;1.60;;
37527;SDS011;23372;52.050;4.810;2022-12-29T16:19:15;12.60;;;4.73;;
37527;SDS011;23372;52.050;4.810;2022-12-29T16:21:58;11.77;;;2.20;;
37527;SDS011;23372;52.050;4.810;2022-12-29T16:24:26;15.20;;;2.77;;
37527;SDS011;23372;52.050;4.810;2022-12-29T16:27:02;10.30;;;1.80;;
37527;SDS011;23372;52.050;4.810;2022-12-29T16:29:34;12.47;;;1.73;;
37527;SDS011;23372;52.050;4.810;2022-12-29T16:32:00;11.30;;;2.37;;
37527;SDS011;23372;52.050;4.810;2022-12-29T16:34:31;12.67;;;3.10;;
37527;SDS011;23372;52.050;4.810;2022-12-29T16:37:20;8.07;;;2.03;;
37527;SDS011;23372;52.050;4.810;2022-12-29T16:39:56;11.23;;;2.37;;
37527;SDS011;23372;52.050;4.810;2022-12-29T16:42:58;13.60;;;2.00;;
37527;SDS011;23372;52.050;4.810;2022-12-29T16:45:38;7.90;;;1.63;;
37527;SDS011;23372;52.050;4.810;2022-12-29T16:48:20;9.97;;;2.07;;
37527;SDS011;23372;52.050;4.810;2022-12-29T16:50:49;11.97;;;1.87;;
37527;SDS011;23372;52.050;4.810;2022-12-29T16:53:18;12.17;;;2.17;;
37527;SDS011;23372;52.050;4.810;2022-12-29T16:55:52;10.20;;;2.57;;
37527;SDS011;23372;52.050;4.810;2022-12-29T16:58:21;8.30;;;2.03;;
37527;SDS011;23372;52.050;4.810;2022-12-29T17:00:48;7.53;;;2.43;;
37527;SDS011;23372;52.050;4.810;2022-12-29T17:03:16;14.87;;;2.33;;
37527;SDS011;23372;52.050;4.810;2022-12-29T17:05:42;11.57;;;2.27;;
37527;SDS011;23372;52.050;4.810;2022-12-29T17:08:18;9.43;;;1.83;;
37527;SDS011;23372;52.050;4.810;2022-12-29T17:10:55;12.87;;;2.47;;
37527;SDS011;23372;52.050;4.810;2022-12-29T17:13:40;5.27;;;1.60;;
37527;SDS011;23372;52.050;4.810;2022-12-29T17:16:06;13.77;;;2.30;;
37527;SDS011;23372;52.050;4.810;2022-12-29T17:18:34;15.80;;;3.47;;
37527;SDS011;23372;52.050;4.810;2022-12-29T17:21:00;14.70;;;3.00;;
37527;SDS011;23372;52.050;4.810;2022-12-29T17:23:25;17.03;;;2.37;;
37527;SDS011;23372;52.050;4.810;2022-12-29T17:25:52;11.67;;;2.37;;
37527;SDS011;23372;52.050;4.810;2022-12-29T17:28:26;4.77;;;1.73;;